Aeroporto :
LOGIN :

Iscrizione | Disclaimer

   EN    FR    IT 

 










Sommario :    VFR   VFR Marginale   IFR   IFR Intensivo   IFR Molto Intensivo
Visibilità : 
Base nubi : 
>= 8 km
>= 3000ft
5 / 8 km
1000 / 3000 ft
1500m / 5 km
500 / 1000 ft
800 / 1500m
200 / 500 ft
< 800m
< 200 ft
Simboli :   Temporali  Nebbia  Neve Forte  Precipitazioni Forti  Vento > 20 kt
SIGMETs :   Varie  Temporali  Ghiacco  Turbolenza  Onda orograficha  Ceneri Vulcaniche






- Altitudine del aeroporto : 412 ft
- Codice IATA : ORE


LFOJ - Orleans

ULTIMO METAR :
  • 280700Z AUTO 24023KT 9999 FEW027 BKN034 OVC150 05/03 Q1003 TEMPO 24020G35KT 2000 TSRAGS BKN030CB

METARs OBSOLETI :
  • 280630Z AUTO 24022KT 9999 SCT028 BKN120 OVC140 06/03 Q1002 TEMPO 24020G35KT 2000 TSRAGS BKN030CB
  • 280600Z AUTO 24022KT 9999 FEW029 SCT110 BKN140 06/03 Q1002 TEMPO 24020G35KT 2000 TSRAGS BKN030CB
  • 280530Z AUTO 24021KT 9999 FEW029 SCT120 BKN150 06/03 Q1001 TEMPO 24020G35KT 2000 TSRAGS BKN030CB
  • 280500Z AUTO 24023KT 9999 FEW023 06/04 Q1001
  • 280430Z AUTO 24022KT CAVOK 06/04 Q1001

TAF AMD TAF LFOJ
Valido dal 28 a 04 ore il 29 a 03 ore UTC


280430Z 2804/2903 24020KT CAVOK
TEMPO 2806/2903 24020G35KT 4000 SHRA SCT030CB
PROB30 2806/2818 2000 TSRAGS BKN030CB



MetMap, La meteo Aeronautica in un colpo d'occhio ! - Copyright ORBIFLY Dicembre 2007 - Disclaimer

ORBIFLY MET'MAP TEAM :

Programmazione e sviluppo : Alexandra Zaïnal
Concezione : Baudouin d'Aumeries
Aiuto per la programmazione : Marc-Olivier Méhu
Supporto tecnico e logistico : Manuel Goepfert
Aiuto per la traduzione : Arnaldo La Scala

Contatto : metmap@orbifly.com




FONTI E CREDITI :

   NOAA